sensor_id;sensor_type;location;lat;lon;timestamp;P1;durP1;ratioP1;P2;durP2;ratioP2
11921;SDS011;6021;51.182;3.160;2022-07-06T00:05:01;3.63;;;2.77;;
11921;SDS011;6021;51.182;3.160;2022-07-06T00:07:38;5.10;;;2.90;;
11921;SDS011;6021;51.182;3.160;2022-07-06T00:10:19;3.57;;;2.70;;
11921;SDS011;6021;51.182;3.160;2022-07-06T00:13:01;3.07;;;2.77;;
11921;SDS011;6021;51.182;3.160;2022-07-06T00:15:45;3.40;;;2.80;;
11921;SDS011;6021;51.182;3.160;2022-07-06T00:18:21;3.40;;;2.50;;
11921;SDS011;6021;51.182;3.160;2022-07-06T00:20:55;4.00;;;2.90;;
11921;SDS011;6021;51.182;3.160;2022-07-06T00:23:35;2.97;;;2.70;;
11921;SDS011;6021;51.182;3.160;2022-07-06T00:26:11;3.83;;;3.07;;
11921;SDS011;6021;51.182;3.160;2022-07-06T00:28:42;2.73;;;2.47;;
11921;SDS011;6021;51.182;3.160;2022-07-06T00:31:24;3.23;;;2.87;;
11921;SDS011;6021;51.182;3.160;2022-07-06T00:34:05;3.40;;;2.77;;
11921;SDS011;6021;51.182;3.160;2022-07-06T00:36:44;3.90;;;3.00;;
11921;SDS011;6021;51.182;3.160;2022-07-06T00:39:35;3.23;;;2.80;;
11921;SDS011;6021;51.182;3.160;2022-07-06T00:42:17;3.57;;;2.40;;
11921;SDS011;6021;51.182;3.160;2022-07-06T00:44:54;5.00;;;2.73;;
11921;SDS011;6021;51.182;3.160;2022-07-06T00:47:37;4.80;;;3.13;;
11921;SDS011;6021;51.182;3.160;2022-07-06T00:50:16;4.77;;;3.50;;
11921;SDS011;6021;51.182;3.160;2022-07-06T00:52:56;4.03;;;2.90;;
11921;SDS011;6021;51.182;3.160;2022-07-06T00:55:42;3.10;;;2.80;;
11921;SDS011;6021;51.182;3.160;2022-07-06T00:58:22;3.90;;;2.53;;
11921;SDS011;6021;51.182;3.160;2022-07-06T01:00:59;4.63;;;2.80;;
11921;SDS011;6021;51.182;3.160;2022-07-06T01:03:40;4.03;;;3.00;;
11921;SDS011;6021;51.182;3.160;2022-07-06T01:06:21;3.77;;;3.37;;
11921;SDS011;6021;51.182;3.160;2022-07-06T01:09:04;4.83;;;3.63;;
11921;SDS011;6021;51.182;3.160;2022-07-06T01:11:42;4.57;;;3.17;;
11921;SDS011;6021;51.182;3.160;2022-07-06T01:14:28;3.23;;;2.90;;
11921;SDS011;6021;51.182;3.160;2022-07-06T01:17:01;4.70;;;3.10;;
11921;SDS011;6021;51.182;3.160;2022-07-06T01:19:45;4.97;;;3.30;;
11921;SDS011;6021;51.182;3.160;2022-07-06T01:22:26;3.37;;;3.00;;
11921;SDS011;6021;51.182;3.160;2022-07-06T01:25:05;3.03;;;2.60;;
11921;SDS011;6021;51.182;3.160;2022-07-06T01:27:48;3.90;;;2.80;;
11921;SDS011;6021;51.182;3.160;2022-07-06T01:30:27;3.57;;;2.80;;
11921;SDS011;6021;51.182;3.160;2022-07-06T01:33:06;3.57;;;2.80;;
11921;SDS011;6021;51.182;3.160;2022-07-06T01:35:44;4.57;;;3.00;;
11921;SDS011;6021;51.182;3.160;2022-07-06T01:38:24;3.47;;;3.17;;
11921;SDS011;6021;51.182;3.160;2022-07-06T01:40:59;3.37;;;2.80;;
11921;SDS011;6021;51.182;3.160;2022-07-06T01:43:44;4.27;;;3.30;;
11921;SDS011;6021;51.182;3.160;2022-07-06T01:46:21;3.47;;;2.97;;
11921;SDS011;6021;51.182;3.160;2022-07-06T01:48:56;4.70;;;3.07;;
11921;SDS011;6021;51.182;3.160;2022-07-06T01:51:43;2.97;;;2.67;;
11921;SDS011;6021;51.182;3.160;2022-07-06T01:54:20;4.00;;;2.87;;
11921;SDS011;6021;51.182;3.160;2022-07-06T01:57:02;4.27;;;2.80;;
11921;SDS011;6021;51.182;3.160;2022-07-06T02:02:41;3.73;;;3.30;;
11921;SDS011;6021;51.182;3.160;2022-07-06T02:05:50;4.20;;;3.30;;
11921;SDS011;6021;51.182;3.160;2022-07-06T02:08:28;3.57;;;2.97;;
11921;SDS011;6021;51.182;3.160;2022-07-06T02:11:04;4.10;;;3.70;;
11921;SDS011;6021;51.182;3.160;2022-07-06T02:13:43;4.93;;;4.03;;
11921;SDS011;6021;51.182;3.160;2022-07-06T02:16:13;6.63;;;3.63;;
11921;SDS011;6021;51.182;3.160;2022-07-06T02:18:53;5.97;;;4.13;;
11921;SDS011;6021;51.182;3.160;2022-07-06T02:21:26;6.00;;;4.33;;
11921;SDS011;6021;51.182;3.160;2022-07-06T02:24:11;5.90;;;4.30;;
11921;SDS011;6021;51.182;3.160;2022-07-06T02:26:45;3.80;;;3.40;;
11921;SDS011;6021;51.182;3.160;2022-07-06T02:29:28;4.53;;;3.53;;
11921;SDS011;6021;51.182;3.160;2022-07-06T02:32:14;4.23;;;3.70;;
11921;SDS011;6021;51.182;3.160;2022-07-06T02:34:59;4.73;;;3.60;;
11921;SDS011;6021;51.182;3.160;2022-07-06T02:37:38;5.40;;;3.63;;
11921;SDS011;6021;51.182;3.160;2022-07-06T02:40:15;5.93;;;3.97;;
11921;SDS011;6021;51.182;3.160;2022-07-06T02:42:56;5.00;;;3.47;;
11921;SDS011;6021;51.182;3.160;2022-07-06T02:45:35;4.43;;;4.03;;
11921;SDS011;6021;51.182;3.160;2022-07-06T02:48:24;4.93;;;4.20;;
11921;SDS011;6021;51.182;3.160;2022-07-06T02:51:08;5.30;;;4.00;;
11921;SDS011;6021;51.182;3.160;2022-07-06T02:53:49;4.40;;;4.00;;
11921;SDS011;6021;51.182;3.160;2022-07-06T02:56:33;5.60;;;5.00;;
11921;SDS011;6021;51.182;3.160;2022-07-06T02:59:13;6.63;;;4.93;;
11921;SDS011;6021;51.182;3.160;2022-07-06T03:01:54;6.50;;;5.00;;
11921;SDS011;6021;51.182;3.160;2022-07-06T03:04:32;6.10;;;4.93;;
11921;SDS011;6021;51.182;3.160;2022-07-06T03:07:15;5.80;;;4.70;;
11921;SDS011;6021;51.182;3.160;2022-07-06T03:10:01;5.30;;;4.67;;
11921;SDS011;6021;51.182;3.160;2022-07-06T03:12:48;6.20;;;4.77;;
11921;SDS011;6021;51.182;3.160;2022-07-06T03:15:32;5.07;;;4.60;;
11921;SDS011;6021;51.182;3.160;2022-07-06T03:18:08;6.63;;;4.73;;
11921;SDS011;6021;51.182;3.160;2022-07-06T03:20:44;5.20;;;4.63;;
11921;SDS011;6021;51.182;3.160;2022-07-06T03:23:29;6.80;;;5.40;;
11921;SDS011;6021;51.182;3.160;2022-07-06T03:26:07;7.00;;;6.30;;
11921;SDS011;6021;51.182;3.160;2022-07-06T03:28:42;6.90;;;5.67;;
11921;SDS011;6021;51.182;3.160;2022-07-06T03:31:14;9.23;;;6.90;;
11921;SDS011;6021;51.182;3.160;2022-07-06T03:33:53;7.10;;;6.40;;
11921;SDS011;6021;51.182;3.160;2022-07-06T03:36:30;7.53;;;6.50;;
11921;SDS011;6021;51.182;3.160;2022-07-06T03:39:08;7.60;;;6.17;;
11921;SDS011;6021;51.182;3.160;2022-07-06T03:41:43;7.40;;;6.37;;
11921;SDS011;6021;51.182;3.160;2022-07-06T03:44:19;7.77;;;6.07;;
11921;SDS011;6021;51.182;3.160;2022-07-06T03:47:00;9.50;;;7.40;;
11921;SDS011;6021;51.182;3.160;2022-07-06T03:49:41;11.57;;;7.97;;
11921;SDS011;6021;51.182;3.160;2022-07-06T03:52:17;10.33;;;7.90;;
11921;SDS011;6021;51.182;3.160;2022-07-06T03:55:00;7.80;;;6.63;;
11921;SDS011;6021;51.182;3.160;2022-07-06T03:57:34;7.30;;;6.50;;
11921;SDS011;6021;51.182;3.160;2022-07-06T04:00:18;9.93;;;7.23;;
11921;SDS011;6021;51.182;3.160;2022-07-06T04:03:01;6.80;;;6.07;;
11921;SDS011;6021;51.182;3.160;2022-07-06T04:05:47;5.80;;;5.30;;
11921;SDS011;6021;51.182;3.160;2022-07-06T04:08:28;6.50;;;5.70;;
11921;SDS011;6021;51.182;3.160;2022-07-06T04:11:06;6.17;;;5.50;;
11921;SDS011;6021;51.182;3.160;2022-07-06T04:13:52;9.40;;;7.00;;
11921;SDS011;6021;51.182;3.160;2022-07-06T04:16:37;6.07;;;5.57;;
11921;SDS011;6021;51.182;3.160;2022-07-06T04:19:12;8.63;;;7.17;;
11921;SDS011;6021;51.182;3.160;2022-07-06T04:21:49;8.47;;;7.30;;
11921;SDS011;6021;51.182;3.160;2022-07-06T04:24:27;8.07;;;6.23;;
11921;SDS011;6021;51.182;3.160;2022-07-06T04:27:07;10.00;;;7.90;;
11921;SDS011;6021;51.182;3.160;2022-07-06T04:29:49;6.97;;;6.27;;
11921;SDS011;6021;51.182;3.160;2022-07-06T04:32:31;9.23;;;7.07;;
11921;SDS011;6021;51.182;3.160;2022-07-06T04:35:13;8.07;;;7.27;;
11921;SDS011;6021;51.182;3.160;2022-07-06T04:37:56;8.90;;;7.87;;
11921;SDS011;6021;51.182;3.160;2022-07-06T04:40:44;9.23;;;8.33;;
11921;SDS011;6021;51.182;3.160;2022-07-06T04:43:30;10.27;;;8.73;;
11921;SDS011;6021;51.182;3.160;2022-07-06T04:46:04;10.47;;;8.23;;
11921;SDS011;6021;51.182;3.160;2022-07-06T04:48:48;9.27;;;8.33;;
11921;SDS011;6021;51.182;3.160;2022-07-06T04:51:28;12.67;;;9.00;;
11921;SDS011;6021;51.182;3.160;2022-07-06T04:54:03;11.70;;;9.90;;
11921;SDS011;6021;51.182;3.160;2022-07-06T04:56:39;8.83;;;7.67;;
11921;SDS011;6021;51.182;3.160;2022-07-06T04:59:17;11.43;;;8.57;;
11921;SDS011;6021;51.182;3.160;2022-07-06T05:01:54;11.07;;;9.47;;
11921;SDS011;6021;51.182;3.160;2022-07-06T05:04:40;10.90;;;8.60;;
11921;SDS011;6021;51.182;3.160;2022-07-06T05:07:22;10.67;;;8.50;;
11921;SDS011;6021;51.182;3.160;2022-07-06T05:10:02;11.67;;;10.13;;
11921;SDS011;6021;51.182;3.160;2022-07-06T05:12:50;12.83;;;10.67;;
11921;SDS011;6021;51.182;3.160;2022-07-06T05:15:24;12.17;;;10.43;;
11921;SDS011;6021;51.182;3.160;2022-07-06T05:17:59;10.67;;;9.57;;
11921;SDS011;6021;51.182;3.160;2022-07-06T05:20:34;12.67;;;10.37;;
11921;SDS011;6021;51.182;3.160;2022-07-06T05:23:11;14.60;;;10.53;;
11921;SDS011;6021;51.182;3.160;2022-07-06T05:25:47;14.23;;;10.83;;
11921;SDS011;6021;51.182;3.160;2022-07-06T05:28:21;12.13;;;10.87;;
11921;SDS011;6021;51.182;3.160;2022-07-06T05:30:57;13.57;;;11.80;;
11921;SDS011;6021;51.182;3.160;2022-07-06T05:33:32;14.33;;;11.20;;
11921;SDS011;6021;51.182;3.160;2022-07-06T05:36:08;13.33;;;11.93;;
11921;SDS011;6021;51.182;3.160;2022-07-06T05:38:41;14.33;;;12.57;;
11921;SDS011;6021;51.182;3.160;2022-07-06T05:41:25;16.07;;;12.93;;
11921;SDS011;6021;51.182;3.160;2022-07-06T05:44:05;15.20;;;13.57;;
11921;SDS011;6021;51.182;3.160;2022-07-06T05:46:41;14.47;;;12.83;;
11921;SDS011;6021;51.182;3.160;2022-07-06T05:49:26;14.57;;;12.93;;
11921;SDS011;6021;51.182;3.160;2022-07-06T05:52:18;15.40;;;13.20;;
11921;SDS011;6021;51.182;3.160;2022-07-06T05:55:11;14.83;;;13.20;;
11921;SDS011;6021;51.182;3.160;2022-07-06T05:57:50;15.53;;;13.73;;
11921;SDS011;6021;51.182;3.160;2022-07-06T06:00:28;16.40;;;13.40;;
11921;SDS011;6021;51.182;3.160;2022-07-06T06:03:06;13.13;;;11.63;;
11921;SDS011;6021;51.182;3.160;2022-07-06T06:05:37;14.30;;;12.80;;
11921;SDS011;6021;51.182;3.160;2022-07-06T06:08:16;13.80;;;12.40;;
11921;SDS011;6021;51.182;3.160;2022-07-06T06:10:57;14.23;;;12.93;;
11921;SDS011;6021;51.182;3.160;2022-07-06T06:13:36;13.37;;;11.97;;
11921;SDS011;6021;51.182;3.160;2022-07-06T06:16:13;16.07;;;13.43;;
11921;SDS011;6021;51.182;3.160;2022-07-06T06:18:46;17.57;;;12.10;;
11921;SDS011;6021;51.182;3.160;2022-07-06T06:21:20;12.60;;;11.33;;
11921;SDS011;6021;51.182;3.160;2022-07-06T06:24:10;12.03;;;10.63;;
11921;SDS011;6021;51.182;3.160;2022-07-06T06:27:08;12.07;;;10.87;;
11921;SDS011;6021;51.182;3.160;2022-07-06T06:29:38;11.27;;;10.07;;
11921;SDS011;6021;51.182;3.160;2022-07-06T06:32:15;11.07;;;9.97;;
11921;SDS011;6021;51.182;3.160;2022-07-06T06:34:56;10.23;;;9.23;;
11921;SDS011;6021;51.182;3.160;2022-07-06T06:37:33;8.00;;;7.13;;
11921;SDS011;6021;51.182;3.160;2022-07-06T06:40:08;11.43;;;9.27;;
11921;SDS011;6021;51.182;3.160;2022-07-06T06:42:39;12.93;;;9.90;;
11921;SDS011;6021;51.182;3.160;2022-07-06T06:45:18;9.57;;;7.90;;
11921;SDS011;6021;51.182;3.160;2022-07-06T06:47:58;10.23;;;7.93;;
11921;SDS011;6021;51.182;3.160;2022-07-06T06:50:30;10.90;;;7.63;;
11921;SDS011;6021;51.182;3.160;2022-07-06T06:53:18;8.47;;;7.30;;
11921;SDS011;6021;51.182;3.160;2022-07-06T06:55:51;9.13;;;7.30;;
11921;SDS011;6021;51.182;3.160;2022-07-06T06:58:24;8.70;;;6.10;;
11921;SDS011;6021;51.182;3.160;2022-07-06T07:00:58;9.33;;;7.20;;
11921;SDS011;6021;51.182;3.160;2022-07-06T07:03:33;10.33;;;7.53;;
11921;SDS011;6021;51.182;3.160;2022-07-06T07:06:03;7.57;;;6.67;;
11921;SDS011;6021;51.182;3.160;2022-07-06T07:08:40;7.47;;;6.43;;
11921;SDS011;6021;51.182;3.160;2022-07-06T07:11:16;7.20;;;5.10;;
11921;SDS011;6021;51.182;3.160;2022-07-06T07:13:55;5.10;;;4.60;;
11921;SDS011;6021;51.182;3.160;2022-07-06T07:16:31;7.60;;;5.20;;
11921;SDS011;6021;51.182;3.160;2022-07-06T07:19:06;6.00;;;4.63;;
11921;SDS011;6021;51.182;3.160;2022-07-06T07:21:48;5.00;;;3.80;;
11921;SDS011;6021;51.182;3.160;2022-07-06T07:24:21;5.00;;;3.70;;
11921;SDS011;6021;51.182;3.160;2022-07-06T07:26:56;6.20;;;3.90;;
11921;SDS011;6021;51.182;3.160;2022-07-06T07:29:31;4.83;;;3.70;;
11921;SDS011;6021;51.182;3.160;2022-07-06T07:32:02;4.43;;;3.60;;
11921;SDS011;6021;51.182;3.160;2022-07-06T07:34:32;8.30;;;4.60;;
11921;SDS011;6021;51.182;3.160;2022-07-06T07:37:13;7.47;;;4.70;;
11921;SDS011;6021;51.182;3.160;2022-07-06T07:39:42;5.90;;;4.70;;
11921;SDS011;6021;51.182;3.160;2022-07-06T07:42:15;6.70;;;5.07;;
11921;SDS011;6021;51.182;3.160;2022-07-06T07:44:45;7.60;;;5.57;;
11921;SDS011;6021;51.182;3.160;2022-07-06T07:47:16;6.93;;;5.10;;
11921;SDS011;6021;51.182;3.160;2022-07-06T07:49:46;7.33;;;5.40;;
11921;SDS011;6021;51.182;3.160;2022-07-06T07:52:20;6.83;;;5.30;;
11921;SDS011;6021;51.182;3.160;2022-07-06T07:54:51;9.47;;;6.77;;
11921;SDS011;6021;51.182;3.160;2022-07-06T07:57:22;9.80;;;6.13;;
11921;SDS011;6021;51.182;3.160;2022-07-06T07:59:50;11.43;;;6.43;;
11921;SDS011;6021;51.182;3.160;2022-07-06T08:02:20;10.30;;;6.87;;
11921;SDS011;6021;51.182;3.160;2022-07-06T08:04:51;8.53;;;7.50;;
11921;SDS011;6021;51.182;3.160;2022-07-06T08:07:19;9.20;;;6.70;;
11921;SDS011;6021;51.182;3.160;2022-07-06T08:09:47;8.73;;;7.07;;
11921;SDS011;6021;51.182;3.160;2022-07-06T08:12:16;9.90;;;6.70;;
11921;SDS011;6021;51.182;3.160;2022-07-06T08:14:53;11.07;;;7.17;;
11921;SDS011;6021;51.182;3.160;2022-07-06T08:17:24;6.13;;;5.10;;
11921;SDS011;6021;51.182;3.160;2022-07-06T08:19:56;8.70;;;6.00;;
11921;SDS011;6021;51.182;3.160;2022-07-06T08:22:26;6.53;;;5.90;;
11921;SDS011;6021;51.182;3.160;2022-07-06T08:24:57;6.70;;;5.93;;
11921;SDS011;6021;51.182;3.160;2022-07-06T08:27:27;7.50;;;6.53;;
11921;SDS011;6021;51.182;3.160;2022-07-06T08:29:58;9.33;;;6.40;;
11921;SDS011;6021;51.182;3.160;2022-07-06T08:32:40;7.37;;;6.10;;
11921;SDS011;6021;51.182;3.160;2022-07-06T08:35:13;9.77;;;6.57;;
11921;SDS011;6021;51.182;3.160;2022-07-06T08:37:43;8.83;;;6.30;;
11921;SDS011;6021;51.182;3.160;2022-07-06T08:40:17;8.33;;;6.63;;
11921;SDS011;6021;51.182;3.160;2022-07-06T08:42:50;7.03;;;5.53;;
11921;SDS011;6021;51.182;3.160;2022-07-06T08:45:20;7.73;;;5.97;;
11921;SDS011;6021;51.182;3.160;2022-07-06T08:47:49;8.57;;;6.17;;
11921;SDS011;6021;51.182;3.160;2022-07-06T08:50:17;8.83;;;6.30;;
11921;SDS011;6021;51.182;3.160;2022-07-06T08:52:50;9.53;;;6.00;;
11921;SDS011;6021;51.182;3.160;2022-07-06T08:55:19;10.33;;;5.90;;
11921;SDS011;6021;51.182;3.160;2022-07-06T08:57:48;9.03;;;6.30;;
11921;SDS011;6021;51.182;3.160;2022-07-06T09:00:24;7.60;;;5.00;;
11921;SDS011;6021;51.182;3.160;2022-07-06T09:03:01;4.93;;;4.10;;
11921;SDS011;6021;51.182;3.160;2022-07-06T09:05:42;7.77;;;5.80;;
11921;SDS011;6021;51.182;3.160;2022-07-06T09:08:19;7.60;;;5.20;;
11921;SDS011;6021;51.182;3.160;2022-07-06T09:10:55;8.37;;;5.33;;
11921;SDS011;6021;51.182;3.160;2022-07-06T09:13:31;7.80;;;5.97;;
11921;SDS011;6021;51.182;3.160;2022-07-06T09:16:10;6.70;;;5.70;;
11921;SDS011;6021;51.182;3.160;2022-07-06T09:18:43;7.80;;;6.97;;
11921;SDS011;6021;51.182;3.160;2022-07-06T09:21:26;9.33;;;6.60;;
11921;SDS011;6021;51.182;3.160;2022-07-06T09:24:08;7.87;;;6.23;;
11921;SDS011;6021;51.182;3.160;2022-07-06T09:26:41;7.90;;;6.37;;
11921;SDS011;6021;51.182;3.160;2022-07-06T09:29:14;8.40;;;5.90;;
11921;SDS011;6021;51.182;3.160;2022-07-06T09:31:57;6.73;;;5.30;;
11921;SDS011;6021;51.182;3.160;2022-07-06T09:34:44;6.37;;;4.80;;
11921;SDS011;6021;51.182;3.160;2022-07-06T09:37:28;9.60;;;5.97;;
11921;SDS011;6021;51.182;3.160;2022-07-06T09:39:57;6.53;;;5.60;;
11921;SDS011;6021;51.182;3.160;2022-07-06T09:42:30;17.17;;;6.43;;
11921;SDS011;6021;51.182;3.160;2022-07-06T09:45:04;8.63;;;5.60;;
11921;SDS011;6021;51.182;3.160;2022-07-06T09:47:39;10.30;;;6.47;;
11921;SDS011;6021;51.182;3.160;2022-07-06T09:50:15;10.63;;;6.43;;
11921;SDS011;6021;51.182;3.160;2022-07-06T09:52:54;8.83;;;6.43;;
11921;SDS011;6021;51.182;3.160;2022-07-06T09:55:29;8.93;;;6.63;;
11921;SDS011;6021;51.182;3.160;2022-07-06T09:57:59;7.17;;;6.13;;
11921;SDS011;6021;51.182;3.160;2022-07-06T10:00:28;8.67;;;6.50;;
11921;SDS011;6021;51.182;3.160;2022-07-06T10:03:00;10.00;;;6.10;;
11921;SDS011;6021;51.182;3.160;2022-07-06T10:05:45;6.93;;;5.40;;
11921;SDS011;6021;51.182;3.160;2022-07-06T10:08:16;9.63;;;7.33;;
11921;SDS011;6021;51.182;3.160;2022-07-06T10:10:47;6.57;;;5.67;;
11921;SDS011;6021;51.182;3.160;2022-07-06T10:13:24;8.60;;;6.93;;
11921;SDS011;6021;51.182;3.160;2022-07-06T10:15:54;8.03;;;5.97;;
11921;SDS011;6021;51.182;3.160;2022-07-06T10:18:32;6.90;;;5.00;;
11921;SDS011;6021;51.182;3.160;2022-07-06T10:21:02;7.30;;;5.20;;
11921;SDS011;6021;51.182;3.160;2022-07-06T10:23:36;7.57;;;4.70;;
11921;SDS011;6021;51.182;3.160;2022-07-06T10:26:11;7.47;;;5.00;;
11921;SDS011;6021;51.182;3.160;2022-07-06T10:28:45;7.23;;;3.83;;
11921;SDS011;6021;51.182;3.160;2022-07-06T10:31:27;6.90;;;4.40;;
11921;SDS011;6021;51.182;3.160;2022-07-06T10:34:06;7.93;;;4.20;;
11921;SDS011;6021;51.182;3.160;2022-07-06T10:36:41;7.17;;;3.90;;
11921;SDS011;6021;51.182;3.160;2022-07-06T10:39:11;4.70;;;3.63;;
11921;SDS011;6021;51.182;3.160;2022-07-06T10:41:58;6.73;;;4.10;;
11921;SDS011;6021;51.182;3.160;2022-07-06T10:44:28;7.13;;;4.37;;
11921;SDS011;6021;51.182;3.160;2022-07-06T10:47:04;6.50;;;4.67;;
11921;SDS011;6021;51.182;3.160;2022-07-06T10:49:48;7.00;;;4.63;;
11921;SDS011;6021;51.182;3.160;2022-07-06T10:52:15;5.33;;;4.33;;
11921;SDS011;6021;51.182;3.160;2022-07-06T10:54:51;5.77;;;4.53;;
11921;SDS011;6021;51.182;3.160;2022-07-06T10:57:43;11.07;;;5.77;;
11921;SDS011;6021;51.182;3.160;2022-07-06T11:00:09;6.03;;;5.00;;
11921;SDS011;6021;51.182;3.160;2022-07-06T11:02:39;5.80;;;4.60;;
11921;SDS011;6021;51.182;3.160;2022-07-06T11:05:13;7.37;;;4.20;;
11921;SDS011;6021;51.182;3.160;2022-07-06T11:08:00;4.03;;;3.10;;
11921;SDS011;6021;51.182;3.160;2022-07-06T11:10:48;6.23;;;4.50;;
11921;SDS011;6021;51.182;3.160;2022-07-06T11:13:27;7.10;;;4.37;;
11921;SDS011;6021;51.182;3.160;2022-07-06T11:16:00;8.40;;;5.40;;
11921;SDS011;6021;51.182;3.160;2022-07-06T11:18:39;7.17;;;5.07;;
11921;SDS011;6021;51.182;3.160;2022-07-06T11:21:22;8.50;;;6.00;;
11921;SDS011;6021;51.182;3.160;2022-07-06T11:23:55;5.97;;;5.20;;
11921;SDS011;6021;51.182;3.160;2022-07-06T11:26:23;7.40;;;5.17;;
11921;SDS011;6021;51.182;3.160;2022-07-06T11:29:04;7.73;;;5.30;;
11921;SDS011;6021;51.182;3.160;2022-07-06T11:31:40;4.63;;;4.07;;
11921;SDS011;6021;51.182;3.160;2022-07-06T11:34:12;8.03;;;5.20;;
11921;SDS011;6021;51.182;3.160;2022-07-06T11:36:44;9.50;;;4.73;;
11921;SDS011;6021;51.182;3.160;2022-07-06T11:39:14;6.43;;;4.63;;
11921;SDS011;6021;51.182;3.160;2022-07-06T11:41:44;10.10;;;5.30;;
11921;SDS011;6021;51.182;3.160;2022-07-06T11:44:16;9.60;;;5.70;;
11921;SDS011;6021;51.182;3.160;2022-07-06T11:46:47;7.77;;;5.00;;
11921;SDS011;6021;51.182;3.160;2022-07-06T11:49:15;6.80;;;4.47;;
11921;SDS011;6021;51.182;3.160;2022-07-06T11:51:46;4.80;;;3.67;;
11921;SDS011;6021;51.182;3.160;2022-07-06T11:54:16;6.13;;;4.47;;
11921;SDS011;6021;51.182;3.160;2022-07-06T11:56:52;7.13;;;4.10;;
11921;SDS011;6021;51.182;3.160;2022-07-06T11:59:38;7.13;;;4.10;;
11921;SDS011;6021;51.182;3.160;2022-07-06T12:02:14;6.33;;;3.77;;
11921;SDS011;6021;51.182;3.160;2022-07-06T12:04:45;5.10;;;3.37;;
11921;SDS011;6021;51.182;3.160;2022-07-06T12:07:24;5.67;;;3.40;;
11921;SDS011;6021;51.182;3.160;2022-07-06T12:09:58;6.77;;;2.80;;
11921;SDS011;6021;51.182;3.160;2022-07-06T12:12:32;3.93;;;3.00;;
11921;SDS011;6021;51.182;3.160;2022-07-06T12:15:02;4.83;;;2.60;;
11921;SDS011;6021;51.182;3.160;2022-07-06T12:17:33;6.67;;;2.60;;
11921;SDS011;6021;51.182;3.160;2022-07-06T12:20:05;6.27;;;2.70;;
11921;SDS011;6021;51.182;3.160;2022-07-06T12:22:34;4.77;;;2.60;;
11921;SDS011;6021;51.182;3.160;2022-07-06T12:25:06;7.70;;;2.67;;
11921;SDS011;6021;51.182;3.160;2022-07-06T12:27:41;3.50;;;2.60;;
11921;SDS011;6021;51.182;3.160;2022-07-06T12:30:12;4.03;;;2.60;;
11921;SDS011;6021;51.182;3.160;2022-07-06T12:32:42;6.43;;;2.90;;
11921;SDS011;6021;51.182;3.160;2022-07-06T12:35:11;4.60;;;2.37;;
11921;SDS011;6021;51.182;3.160;2022-07-06T12:37:55;5.13;;;3.00;;
11921;SDS011;6021;51.182;3.160;2022-07-06T12:40:31;5.47;;;2.90;;
11921;SDS011;6021;51.182;3.160;2022-07-06T12:43:06;3.67;;;2.23;;
11921;SDS011;6021;51.182;3.160;2022-07-06T12:45:37;5.20;;;2.90;;
11921;SDS011;6021;51.182;3.160;2022-07-06T12:48:11;5.07;;;2.70;;
11921;SDS011;6021;51.182;3.160;2022-07-06T12:50:46;4.47;;;2.60;;
11921;SDS011;6021;51.182;3.160;2022-07-06T12:53:24;4.23;;;2.40;;
11921;SDS011;6021;51.182;3.160;2022-07-06T12:56:08;3.87;;;2.40;;
11921;SDS011;6021;51.182;3.160;2022-07-06T12:58:37;4.70;;;2.90;;
11921;SDS011;6021;51.182;3.160;2022-07-06T13:01:14;4.27;;;2.57;;
11921;SDS011;6021;51.182;3.160;2022-07-06T13:03:53;3.93;;;2.70;;
11921;SDS011;6021;51.182;3.160;2022-07-06T13:06:37;5.73;;;2.60;;
11921;SDS011;6021;51.182;3.160;2022-07-06T13:09:09;4.00;;;2.13;;
11921;SDS011;6021;51.182;3.160;2022-07-06T13:11:45;5.70;;;2.40;;
11921;SDS011;6021;51.182;3.160;2022-07-06T13:14:22;5.77;;;2.40;;
11921;SDS011;6021;51.182;3.160;2022-07-06T13:16:57;4.20;;;2.40;;
11921;SDS011;6021;51.182;3.160;2022-07-06T13:19:34;4.73;;;2.07;;
11921;SDS011;6021;51.182;3.160;2022-07-06T13:22:05;4.00;;;2.00;;
11921;SDS011;6021;51.182;3.160;2022-07-06T13:24:34;5.37;;;2.00;;
11921;SDS011;6021;51.182;3.160;2022-07-06T13:27:03;3.47;;;1.80;;
11921;SDS011;6021;51.182;3.160;2022-07-06T13:29:32;6.43;;;1.87;;
11921;SDS011;6021;51.182;3.160;2022-07-06T13:32:04;3.90;;;1.70;;
11921;SDS011;6021;51.182;3.160;2022-07-06T13:34:35;3.60;;;1.60;;
11921;SDS011;6021;51.182;3.160;2022-07-06T13:37:04;3.77;;;1.80;;
11921;SDS011;6021;51.182;3.160;2022-07-06T13:39:54;3.13;;;1.60;;
11921;SDS011;6021;51.182;3.160;2022-07-06T13:42:28;4.10;;;1.60;;
11921;SDS011;6021;51.182;3.160;2022-07-06T13:45:02;3.10;;;1.50;;
11921;SDS011;6021;51.182;3.160;2022-07-06T13:47:39;3.33;;;1.50;;
11921;SDS011;6021;51.182;3.160;2022-07-06T13:50:11;3.23;;;1.40;;
11921;SDS011;6021;51.182;3.160;2022-07-06T13:52:39;5.23;;;1.73;;
11921;SDS011;6021;51.182;3.160;2022-07-06T13:55:09;2.13;;;1.40;;
11921;SDS011;6021;51.182;3.160;2022-07-06T13:57:37;3.17;;;1.70;;
11921;SDS011;6021;51.182;3.160;2022-07-06T14:00:16;4.50;;;1.60;;
11921;SDS011;6021;51.182;3.160;2022-07-06T14:02:53;4.00;;;1.70;;
11921;SDS011;6021;51.182;3.160;2022-07-06T14:05:29;3.70;;;1.40;;
11921;SDS011;6021;51.182;3.160;2022-07-06T14:08:15;3.93;;;1.50;;
11921;SDS011;6021;51.182;3.160;2022-07-06T14:10:48;4.50;;;1.67;;
11921;SDS011;6021;51.182;3.160;2022-07-06T14:13:28;3.70;;;1.43;;
11921;SDS011;6021;51.182;3.160;2022-07-06T14:16:05;2.27;;;1.40;;
11921;SDS011;6021;51.182;3.160;2022-07-06T14:18:44;2.53;;;1.23;;
11921;SDS011;6021;51.182;3.160;2022-07-06T14:21:24;2.37;;;1.30;;
11921;SDS011;6021;51.182;3.160;2022-07-06T14:23:53;1.97;;;1.20;;
11921;SDS011;6021;51.182;3.160;2022-07-06T14:26:25;1.77;;;0.90;;
11921;SDS011;6021;51.182;3.160;2022-07-06T14:28:59;3.13;;;1.10;;
11921;SDS011;6021;51.182;3.160;2022-07-06T14:31:29;1.00;;;0.80;;
11921;SDS011;6021;51.182;3.160;2022-07-06T14:34:27;1.30;;;0.93;;
11921;SDS011;6021;51.182;3.160;2022-07-06T14:37:01;1.53;;;1.00;;
11921;SDS011;6021;51.182;3.160;2022-07-06T14:39:29;1.60;;;0.90;;
11921;SDS011;6021;51.182;3.160;2022-07-06T14:42:05;1.47;;;0.90;;
11921;SDS011;6021;51.182;3.160;2022-07-06T14:44:38;1.93;;;0.80;;
11921;SDS011;6021;51.182;3.160;2022-07-06T14:47:12;1.63;;;0.70;;
11921;SDS011;6021;51.182;3.160;2022-07-06T14:49:44;1.03;;;0.80;;
11921;SDS011;6021;51.182;3.160;2022-07-06T14:52:21;1.90;;;0.77;;
11921;SDS011;6021;51.182;3.160;2022-07-06T14:54:49;0.80;;;0.70;;
11921;SDS011;6021;51.182;3.160;2022-07-06T14:57:26;1.03;;;0.80;;
11921;SDS011;6021;51.182;3.160;2022-07-06T15:00:01;2.60;;;0.90;;
11921;SDS011;6021;51.182;3.160;2022-07-06T15:02:32;1.13;;;0.70;;
11921;SDS011;6021;51.182;3.160;2022-07-06T15:05:05;1.47;;;0.80;;
11921;SDS011;6021;51.182;3.160;2022-07-06T15:07:34;1.60;;;0.90;;
11921;SDS011;6021;51.182;3.160;2022-07-06T15:10:07;1.10;;;0.77;;
11921;SDS011;6021;51.182;3.160;2022-07-06T15:12:36;0.83;;;0.80;;
11921;SDS011;6021;51.182;3.160;2022-07-06T15:15:18;1.30;;;1.00;;
11921;SDS011;6021;51.182;3.160;2022-07-06T15:17:47;0.83;;;0.80;;
11921;SDS011;6021;51.182;3.160;2022-07-06T15:20:22;0.80;;;0.80;;
11921;SDS011;6021;51.182;3.160;2022-07-06T15:23:00;0.80;;;0.80;;
11921;SDS011;6021;51.182;3.160;2022-07-06T15:25:31;1.10;;;1.00;;
11921;SDS011;6021;51.182;3.160;2022-07-06T15:28:15;1.10;;;1.00;;
11921;SDS011;6021;51.182;3.160;2022-07-06T15:30:48;1.30;;;1.20;;
11921;SDS011;6021;51.182;3.160;2022-07-06T15:33:41;1.47;;;1.10;;
11921;SDS011;6021;51.182;3.160;2022-07-06T15:36:16;1.63;;;0.90;;
11921;SDS011;6021;51.182;3.160;2022-07-06T15:38:46;1.23;;;1.13;;
11921;SDS011;6021;51.182;3.160;2022-07-06T15:41:23;1.43;;;1.20;;
11921;SDS011;6021;51.182;3.160;2022-07-06T15:43:51;1.67;;;1.10;;
11921;SDS011;6021;51.182;3.160;2022-07-06T15:46:40;1.10;;;1.00;;
11921;SDS011;6021;51.182;3.160;2022-07-06T15:49:09;1.40;;;1.30;;
11921;SDS011;6021;51.182;3.160;2022-07-06T15:51:37;1.30;;;1.20;;
11921;SDS011;6021;51.182;3.160;2022-07-06T15:54:07;1.40;;;1.30;;
11921;SDS011;6021;51.182;3.160;2022-07-06T15:56:36;1.20;;;1.20;;
11921;SDS011;6021;51.182;3.160;2022-07-06T15:59:05;1.30;;;1.20;;
11921;SDS011;6021;51.182;3.160;2022-07-06T16:01:34;1.50;;;1.40;;